»·PEaware :: UAL518 KSAN-KLAS

UAL518 :: KSAN-KLAS

FLIGHT INFORMATION

Flight Status: Arrived
Operator:
United Airlines
More flights by this operator :: More flights under this callsign
Pilot: Spencer P. (16713)
Aircraft: BOEING 737-700
(B737)
More flights by this aircraft type
Origin: KSAN San Diego Intl-Lindbergh
United States
Destination: KLAS McCarran Intl
United States
More flights between these airports :: More routes between these airports
Route: +PEBLE6 SXC LAX DAG MISEN KEPEC6
File this flight plan on PilotEdge
Remarks:
Altitude:
(Current/Filed)
28,000ft
Speed:
(Current/Filed)
310kts
Departed: 20-Nov-17 02:24 PM
Arrived: 20-Nov-17 04:01 PM
Distance/Time
Traveled:
225nm/1:37
Distance/Time
To Go:
Arrived

Flight Plot

Page will automatically refresh every two minutes.

Flight plan parsing failed; only flown route is shown


Map Options




Map Legend


Flown Route
Filed Route
Departure Airport
Arrival Airport
Navaid (VOR, NDB)
Fix

Horizontal Profiles

Position Reports

Time Latitude Longitude Heading Altitude Ground
Speed
20-Nov-17 13:51 32.732980 -117.198792 101 19ft 0kts
20-Nov-17 13:52 32.732980 -117.198792 101 19ft 0kts
20-Nov-17 13:53 32.732980 -117.198792 101 19ft 0kts
20-Nov-17 13:54 32.732980 -117.198792 101 19ft 0kts
20-Nov-17 13:55 32.732980 -117.198792 101 19ft 0kts
20-Nov-17 13:56 32.732980 -117.198792 101 19ft 0kts
20-Nov-17 13:57 32.732980 -117.198792 101 19ft 0kts
20-Nov-17 13:58 32.732980 -117.198792 101 19ft 0kts
20-Nov-17 13:59 32.732980 -117.198792 101 19ft 0kts
20-Nov-17 14:00 32.732980 -117.198792 101 19ft 0kts
20-Nov-17 14:01 32.732980 -117.198792 101 19ft 0kts
20-Nov-17 14:02 32.732980 -117.198792 101 19ft 0kts
20-Nov-17 14:03 32.732980 -117.198792 101 19ft 0kts
20-Nov-17 14:04 32.732980 -117.198792 101 19ft 0kts
20-Nov-17 14:05 32.732980 -117.198792 101 19ft 0kts
20-Nov-17 14:06 32.732980 -117.198792 101 19ft 0kts
20-Nov-17 14:07 32.732980 -117.198792 101 19ft 0kts
20-Nov-17 14:08 32.732980 -117.198792 101 19ft 0kts
20-Nov-17 14:09 32.732980 -117.198792 101 19ft 0kts
20-Nov-17 14:10 32.732980 -117.198792 101 19ft 0kts
20-Nov-17 14:11 32.732980 -117.198792 101 19ft 0kts
20-Nov-17 14:12 32.732980 -117.198792 101 19ft 0kts
20-Nov-17 14:13 32.732980 -117.198792 101 19ft 0kts
20-Nov-17 14:14 32.732980 -117.198792 101 19ft 0kts
20-Nov-17 14:15 32.732980 -117.198792 101 19ft 0kts
20-Nov-17 14:16 32.732980 -117.198792 101 19ft 0kts
20-Nov-17 14:17 32.732980 -117.198792 101 19ft 0kts
20-Nov-17 14:18 32.732980 -117.198792 101 19ft 0kts
20-Nov-17 14:19 32.732980 -117.198792 101 19ft 0kts
20-Nov-17 14:20 32.732980 -117.198792 101 19ft 0kts
20-Nov-17 14:21 32.732987 -117.198834 100 19ft 0kts
20-Nov-17 14:22 32.732953 -117.199629 20 19ft 0kts
20-Nov-17 14:23 32.732955 -117.199620 29 19ft 0kts
20-Nov-17 14:24 32.732955 -117.199620 29 19ft 0kts
20-Nov-17 14:25 32.732955 -117.199620 29 19ft 0kts
20-Nov-17 14:26 32.733519 -117.199407 14 19ft 23kts
20-Nov-17 14:27 32.733928 -117.195442 106 21ft 23kts
20-Nov-17 14:28 32.732584 -117.189968 105 20ft 27kts
20-Nov-17 14:29 32.730611 -117.181818 105 19ft 52kts
20-Nov-17 14:30 32.729465 -117.176954 83 24ft 0kts
20-Nov-17 14:31 32.729497 -117.176765 76 24ft 14kts
20-Nov-17 14:32 32.731782 -117.182364 285 19ft 121kts
20-Nov-17 14:33 32.742338 -117.216670 297 1242ft 198kts
20-Nov-17 14:34 32.762657 -117.254156 303 3066ft 210kts
20-Nov-17 14:35 32.786237 -117.295035 304 5009ft 212kts
20-Nov-17 14:36 32.812140 -117.339742 305 7114ft 213kts
20-Nov-17 14:37 32.840576 -117.388627 307 9401ft 216kts
20-Nov-17 14:38 32.864219 -117.429132 308 11260ft 217kts
20-Nov-17 14:39 32.887866 -117.469550 309 13085ft 213kts
20-Nov-17 14:40 32.913434 -117.508185 321 14635ft 213kts
20-Nov-17 14:41 32.942416 -117.538243 320 15916ft 220kts
20-Nov-17 14:42 32.980539 -117.578887 318 17199ft 240kts
20-Nov-17 14:43 33.011607 -117.621309 310 18324ft 257kts
20-Nov-17 14:44 33.038067 -117.660382 309 19276ft 276kts
20-Nov-17 14:45 33.077233 -117.718601 308 20529ft 290kts
20-Nov-17 14:46 33.109020 -117.765807 307 21563ft 316kts
20-Nov-17 14:47 33.156633 -117.834890 308 22082ft 363kts
20-Nov-17 14:48 33.210188 -117.889167 324 22131ft 377kts
20-Nov-17 14:49 33.270397 -117.933958 324 22111ft 384kts
20-Nov-17 14:50 33.329472 -117.977924 324 22099ft 384kts
20-Nov-17 14:51 33.381536 -118.016710 325 22092ft 384kts
20-Nov-17 14:52 33.419603 -118.045094 325 22086ft 385kts
20-Nov-17 14:53 33.455861 -118.072149 325 22079ft 385kts
20-Nov-17 14:54 33.492111 -118.099221 325 22076ft 385kts
20-Nov-17 14:55 33.546526 -118.139902 325 22076ft 384kts
20-Nov-17 14:56 33.601681 -118.181196 325 22075ft 384kts
20-Nov-17 14:57 33.662105 -118.226513 325 22073ft 384kts
20-Nov-17 14:58 33.718560 -118.268941 325 22073ft 384kts
20-Nov-17 14:59 33.781435 -118.276469 16 22017ft 416kts
20-Nov-17 15:00 33.829938 -118.220421 45 22147ft 443kts
20-Nov-17 15:01 33.882265 -118.165916 27 22107ft 430kts
20-Nov-17 15:02 33.945165 -118.121302 22 22080ft 425kts
20-Nov-17 15:03 34.011166 -118.078910 21 22071ft 424kts
20-Nov-17 15:04 34.078049 -118.035654 22 22073ft 425kts
20-Nov-17 15:05 34.145921 -117.990203 22 22079ft 426kts
20-Nov-17 15:06 34.210583 -117.938143 45 21987ft 444kts
20-Nov-17 15:07 34.251657 -117.855475 54 22120ft 452kts
20-Nov-17 15:08 34.291497 -117.771696 54 22102ft 451kts
20-Nov-17 15:09 34.330826 -117.688953 53 22099ft 450kts
20-Nov-17 15:10 34.371107 -117.615313 54 22114ft 450kts
20-Nov-17 15:11 34.408168 -117.537647 54 22125ft 451kts
20-Nov-17 15:12 34.446344 -117.457369 54 22136ft 451kts
20-Nov-17 15:13 34.483870 -117.378410 54 22143ft 451kts
20-Nov-17 15:14 34.524423 -117.292668 55 22143ft 452kts
20-Nov-17 15:15 34.566540 -117.202569 55 22144ft 452kts
20-Nov-17 15:16 34.609809 -117.109705 55 22146ft 452kts
20-Nov-17 15:17 34.654374 -117.014368 55 22141ft 450kts
20-Nov-17 15:18 34.699921 -116.924998 52 22135ft 447kts
20-Nov-17 15:19 34.747743 -116.837603 51 22129ft 445kts
20-Nov-17 15:20 34.796207 -116.750858 50 22128ft 445kts
20-Nov-17 15:21 34.843918 -116.665882 50 22128ft 445kts
20-Nov-17 15:22 34.900232 -116.588739 43 22092ft 438kts
20-Nov-17 15:23 34.924821 -116.483229 81 22194ft 458kts
20-Nov-17 15:24 34.931802 -116.380837 81 22145ft 458kts
20-Nov-17 15:25 34.938470 -116.277922 82 22144ft 457kts
20-Nov-17 15:26 34.944976 -116.174475 82 22151ft 457kts
20-Nov-17 15:27 34.959006 -116.074999 56 21673ft 448kts
20-Nov-17 15:28 35.021038 -116.018251 19 20707ft 402kts
20-Nov-17 15:29 35.094829 -115.979316 19 19714ft 393kts
20-Nov-17 15:30 35.168624 -115.940822 19 18753ft 389kts
20-Nov-17 15:31 35.238645 -115.904682 19 17826ft 385kts
20-Nov-17 15:32 35.307909 -115.869022 19 16907ft 380kts
20-Nov-17 15:33 35.376465 -115.833758 20 15981ft 376kts
20-Nov-17 15:34 35.456546 -115.792581 20 14888ft 372kts
20-Nov-17 15:35 35.517404 -115.761289 20 14049ft 369kts
20-Nov-17 15:36 35.583937 -115.727067 21 13265ft 363kts
20-Nov-17 15:37 35.650623 -115.692727 21 13076ft 363kts
20-Nov-17 15:38 35.703706 -115.636293 44 13061ft 369kts
20-Nov-17 15:39 35.753122 -115.573438 38 13012ft 368kts
20-Nov-17 15:40 35.820013 -115.554270 1 13074ft 363kts
20-Nov-17 15:41 35.887414 -115.551248 0 13026ft 363kts
20-Nov-17 15:42 35.956145 -115.548429 3 12966ft 349kts
20-Nov-17 15:43 36.004507 -115.503806 65 11739ft 352kts
20-Nov-17 15:44 36.025243 -115.436746 67 11139ft 319kts
20-Nov-17 15:45 36.041738 -115.382177 67 10975ft 294kts
20-Nov-17 15:46 36.044559 -115.328057 94 10660ft 299kts
20-Nov-17 15:47 36.040942 -115.286284 94 10139ft 298kts
20-Nov-17 15:48 36.036439 -115.235784 94 9469ft 292kts
20-Nov-17 15:49 36.030927 -115.174092 94 8631ft 284kts
20-Nov-17 15:50 36.025483 -115.113170 94 8078ft 256kts
20-Nov-17 15:51 36.020528 -115.056702 93 7829ft 240kts
20-Nov-17 15:52 36.015413 -114.995593 94 6849ft 237kts
20-Nov-17 15:53 36.011109 -114.945258 93 6342ft 225kts
20-Nov-17 15:54 36.006377 -114.890478 94 6022ft 229kts
20-Nov-17 15:55 36.006287 -114.840028 56 5588ft 226kts
20-Nov-17 15:56 36.042041 -114.814682 4 4974ft 211kts
20-Nov-17 15:57 36.062717 -114.849978 269 4483ft 212kts
20-Nov-17 15:58 36.065613 -114.896372 281 4294ft 193kts
20-Nov-17 15:59 36.074116 -114.939332 270 4304ft 190kts
20-Nov-17 16:00 36.073496 -114.982368 269 4351ft 187kts
20-Nov-17 16:01 36.073385 -115.019273 270 3779ft 184kts
20-Nov-17 16:02 36.073500 -115.053088 270 3239ft 159kts
20-Nov-17 16:03 36.073597 -115.083036 270 2784ft 160kts
20-Nov-17 16:04 36.073653 -115.113200 269 2306ft 152kts
20-Nov-17 16:05 36.073620 -115.141200 269 2090ft 65kts
20-Nov-17 16:06 36.074356 -115.145106 298 2102ft 0kts

Navigation Log

Ident Type
Flight plan parsing failed, navigation log unavailable